Ελευσίνα, Ελλάδα

08:11 PM EET on Οκτώβριος 30, 2014 (GMT +0200)
Elefsis Air Base | Change Station
CLOSE
Current Station
Airport
Location: Elefsis,
Elevation: 102 ft
Nearby Weather Stations

Elev 102 ft 38.06 °N, 23.56 °E | Updated 21 minutes ago

Partly Cloudy
Λίγο Νεφελώδης
59 ° F
Feels Like 59 ° F
N
0
Ανεμος Μεταβλητός Ανεμος from Βόρειος

Σήμερα
High -- | Low -- ° F
--% Chance of Precip.
Yesterday
High -- | Low -- ° F
Precip. -- in
6:49 AM 5:29 PM
Μηνίσκος, 46% visible
Ατμοσφαιρική Πίεση 30.06 in
Ορατότητα 6.2 Μίλια
Σύννεφα Few 3000 ft
Σημείο Δρόσου 48 ° F
Υγρασία 67%
Rainfall 0.00 in
Snow Depth Not available.
Υπεριώδης ακτινοβολία (UV) 0 out of 12
Pollen Not available.
Air Quality Not available.
Flu Activity Not available.
METAR LGEL 301750Z 00000KT 9999 FEW030 15/09 Q1018

More Conditions Fewer Conditions

Ατμοσφαιρική Πίεση 30.06 in
Ορατότητα 6.2 Μίλια
Σύννεφα Few 3000 ft
Σημείο Δρόσου 48 ° F
Υγρασία 67%
Rainfall 0.00 in
Snow Depth Not available.
Υπεριώδης ακτινοβολία (UV) 0 out of 12
Pollen Not available.
Air Quality Not available.
Flu Activity Not available.
METAR LGEL 301750Z 00000KT 9999 FEW030 15/09 Q1018

More Conditions Fewer Conditions

10-Day Weather Forecast

Almanac

Αστρονομία

Oct. 30, 2014 Rise Set
Actual Time
Civil Twilight
Nautical Twilight
Astronomical Twilight
Moon
Length Of Visible Light
Διάρκεια ημέρας
Tomorrow will be .
, % of the Moon is Illuminated

Today's Extremes

Country Highs Country Lows

Community

WunderPhotos

Upload Photos

1,766,417 photos uploaded!

WunderBlogs® & News

Nearby

Air Quality

  Air Quality AQ Index Pollutant
Not available.

Snow Depth

Station Depth Elevation

Earthquake Activity

City Distance Mag. Time & Date
Minimum magnitude displayed is 2.5.

Coastal Water Temperatures

Τοποθεσία Θερμοκρασία

Nearby Weather Stations